Time;durP1;ratioP1;P1;durP2;ratioP2;P2;SDS_P1;SDS_P2;PMS_P1;PMS_P2;Temp;Humidity;BMP_temperature;BMP_pressure;BME280_temperature;BME280_humidity;BME280_pressure;Samples;Min_cycle;Max_cycle;Signal;HPM_P1;HPM_P2
2022/09/13 00:01:44;;;;;;;2.60;2.40;;;18.00;99.90;;;;;;5075571;28;20166;-71
2022/09/13 00:04:10;;;;;;;2.20;2.00;;;18.00;99.90;;;;;;5074703;28;20268;-71
2022/09/13 00:06:36;;;;;;;2.13;1.93;;;18.00;99.90;;;;;;5075516;28;20537;-70
2022/09/13 00:09:01;;;;;;;2.60;2.40;;;17.80;99.90;;;;;;5075663;28;20604;-70
2022/09/13 00:11:30;;;;;;;3.00;2.10;;;17.80;99.90;;;;;;5075532;28;20170;-71
2022/09/13 00:13:56;;;;;;;2.97;2.47;;;17.80;99.90;;;;;;5075226;28;20200;-70
2022/09/13 00:16:24;;;;;;;3.53;2.33;;;17.80;99.90;;;;;;5075349;28;20790;-71
2022/09/13 00:18:51;;;;;;;2.50;2.30;;;17.80;99.90;;;;;;5074841;28;20820;-71
2022/09/13 00:21:19;;;;;;;2.23;2.07;;;17.80;99.90;;;;;;5075059;28;20968;-70
2022/09/13 00:23:47;;;;;;;3.40;2.20;;;17.70;99.90;;;;;;5074736;28;20753;-71
2022/09/13 00:26:16;;;;;;;3.80;2.30;;;17.70;99.90;;;;;;5075275;28;20397;-70
2022/09/13 00:28:44;;;;;;;3.73;2.20;;;17.70;99.90;;;;;;5075054;28;20428;-70
2022/09/13 00:31:10;;;;;;;2.33;2.10;;;17.70;99.90;;;;;;5075372;28;20404;-71
2022/09/13 00:33:36;;;;;;;2.27;2.07;;;17.80;99.90;;;;;;5074813;28;21248;-71
2022/09/13 00:36:05;;;;;;;2.07;1.83;;;17.80;99.90;;;;;;5074282;28;20400;-71
2022/09/13 00:38:33;;;;;;;2.30;2.10;;;17.70;99.90;;;;;;5073354;28;20420;-71
2022/09/13 00:40:59;;;;;;;4.13;2.30;;;17.60;99.90;;;;;;5074898;28;20411;-71
2022/09/13 00:43:44;;;;;;;2.33;2.13;;;17.60;99.90;;;;;;5074724;28;20424;-71
2022/09/13 00:46:16;;;;;;;3.17;1.90;;;17.60;99.90;;;;;;5074766;28;20158;-71
2022/09/13 00:48:44;;;;;;;2.60;2.40;;;17.60;99.90;;;;;;5074597;28;20793;-71
2022/09/13 00:51:11;;;;;;;2.27;2.07;;;17.40;99.90;;;;;;5074658;28;20997;-71
2022/09/13 00:53:40;;;;;;;1.90;1.77;;;17.20;99.90;;;;;;5072905;28;20452;-71
2022/09/13 00:56:18;;;;;;;2.97;1.80;;;17.30;99.90;;;;;;5074409;28;20411;-71
2022/09/13 00:58:58;;;;;;;2.50;2.30;;;17.30;99.90;;;;;;5068634;28;20425;-71
2022/09/13 01:01:36;;;;;;;3.00;2.53;;;17.20;99.90;;;;;;5071823;28;20461;-71
2022/09/13 01:04:02;;;;;;;3.30;2.30;;;17.10;99.90;;;;;;5074081;28;20446;-70
2022/09/13 01:06:32;;;;;;;2.80;2.27;;;17.10;99.90;;;;;;5055554;28;20428;-70
2022/09/13 01:09:03;;;;;;;2.23;2.03;;;17.10;99.90;;;;;;5054040;28;20417;-70
2022/09/13 01:11:49;;;;;;;3.43;2.00;;;17.10;99.90;;;;;;5054339;28;20390;-72
2022/09/13 01:14:18;;;;;;;1.83;1.73;;;17.00;99.90;;;;;;5054107;28;21076;-71
2022/09/13 01:16:44;;;;;;;3.07;1.97;;;17.00;99.90;;;;;;5057237;28;20427;-71
2022/09/13 01:19:09;;;;;;;2.27;1.80;;;16.80;99.90;;;;;;5073860;28;20412;-71
2022/09/13 01:22:15;;;;;;;2.40;2.20;;;16.80;99.90;;;;;;5074593;28;20162;-71
2022/09/13 01:25:17;;;;;;;2.30;2.00;;;17.00;99.90;;;;;;5073090;28;20173;-70
2022/09/13 01:28:02;;;;;;;2.20;2.00;;;17.00;99.90;;;;;;5074100;28;20836;-71
2022/09/13 01:30:41;;;;;;;3.00;1.83;;;17.00;99.90;;;;;;5073952;28;20861;-71
2022/09/13 01:33:27;;;;;;;2.23;2.03;;;17.00;99.90;;;;;;5073604;28;20518;-70
2022/09/13 01:36:34;;;;;;;2.27;2.17;;;17.00;99.90;;;;;;5073786;28;20387;-71
2022/09/13 01:39:05;;;;;;;3.40;2.17;;;16.90;99.90;;;;;;4991516;28;20488;-70
2022/09/13 01:41:41;;;;;;;2.50;2.03;;;16.70;99.90;;;;;;4992991;28;20506;-71
2022/09/13 01:44:24;;;;;;;4.23;2.20;;;16.60;99.90;;;;;;5018520;28;20485;-71
2022/09/13 01:46:53;;;;;;;3.40;2.03;;;16.40;99.90;;;;;;5051506;28;20513;-71
2022/09/13 01:49:50;;;;;;;2.20;2.00;;;16.40;99.90;;;;;;5054503;28;20407;-70
2022/09/13 01:52:21;;;;;;;2.40;1.90;;;16.30;99.90;;;;;;5053039;28;20906;-71
2022/09/13 01:55:07;;;;;;;2.33;2.13;;;16.30;99.90;;;;;;5068992;28;20445;-71
2022/09/13 01:57:50;;;;;;;2.33;2.13;;;16.30;99.90;;;;;;5073495;28;20391;-71
2022/09/13 02:00:17;;;;;;;3.30;1.70;;;16.30;99.90;;;;;;5073811;28;20380;-71
2022/09/13 02:03:03;;;;;;;2.83;2.20;;;16.30;99.90;;;;;;5091567;22;20517;-71
2022/09/13 02:05:38;;;;;;;2.70;1.83;;;16.40;99.90;;;;;;5042350;28;20830;-69
2022/09/13 02:08:39;;;;;;;2.17;2.07;;;16.50;99.90;;;;;;5045023;28;20833;-70
2022/09/13 02:11:13;;;;;;;3.00;2.43;;;16.50;99.90;;;;;;5052242;28;20373;-70
2022/09/13 02:14:05;;;;;;;2.20;1.50;;;16.60;99.90;;;;;;5052987;28;20448;-71
2022/09/13 02:16:38;;;;;;;2.67;2.13;;;16.70;99.90;;;;;;5041727;28;20418;-69
2022/09/13 02:19:12;;;;;;;2.33;2.10;;;16.70;99.90;;;;;;5056508;28;20403;-70
2022/09/13 02:21:42;;;;;;;2.30;1.80;;;16.70;99.90;;;;;;5061975;28;20388;-69
2022/09/13 02:24:16;;;;;;;2.70;2.03;;;16.60;99.90;;;;;;5061774;28;20464;-70
2022/09/13 02:26:45;;;;;;;2.77;2.37;;;16.60;99.90;;;;;;5060343;28;20389;-69
2022/09/13 02:29:16;;;;;;;2.10;1.90;;;16.60;99.90;;;;;;5059358;28;20489;-69
2022/09/13 02:31:48;;;;;;;2.10;1.90;;;16.60;99.90;;;;;;5055927;28;20389;-69
2022/09/13 02:34:21;;;;;;;2.50;2.10;;;16.60;99.90;;;;;;5059461;28;20433;-70
2022/09/13 02:36:49;;;;;;;2.53;2.00;;;16.50;99.90;;;;;;5061733;28;20393;-71
2022/09/13 02:39:18;;;;;;;2.80;2.13;;;16.40;99.90;;;;;;5041289;28;20406;-69
2022/09/13 02:41:48;;;;;;;2.90;2.50;;;16.30;99.90;;;;;;5026531;28;20406;-70
2022/09/13 02:44:25;;;;;;;6.40;3.07;;;16.30;99.90;;;;;;5034746;28;20839;-70
2022/09/13 02:46:59;;;;;;;1.87;1.77;;;16.20;99.90;;;;;;5014835;28;20389;-69
2022/09/13 02:49:59;;;;;;;2.20;2.00;;;16.30;99.90;;;;;;5032385;28;20400;-70
2022/09/13 02:52:53;;;;;;;4.57;2.77;;;16.30;99.90;;;;;;5031834;28;20398;-70
2022/09/13 02:55:37;;;;;;;2.07;1.87;;;16.40;99.90;;;;;;5032583;28;20769;-68
2022/09/13 02:58:11;;;;;;;2.50;2.30;;;16.60;99.90;;;;;;5033682;28;20388;-69
2022/09/13 03:00:37;;;;;;;2.53;2.33;;;16.70;99.90;;;;;;5036559;28;20383;-69
2022/09/13 03:03:06;;;;;;;2.43;2.13;;;16.80;99.90;;;;;;5035839;28;20433;-68
2022/09/13 03:05:31;;;;;;;2.00;1.87;;;16.80;99.90;;;;;;5054329;28;20194;-69
2022/09/13 03:07:58;;;;;;;2.53;2.33;;;16.80;99.90;;;;;;5055950;28;20423;-69
2022/09/13 03:10:28;;;;;;;3.00;2.70;;;16.80;99.90;;;;;;5055825;28;20161;-70
2022/09/13 03:13:05;;;;;;;3.10;2.40;;;16.80;99.90;;;;;;5055728;28;20642;-69
2022/09/13 03:15:49;;;;;;;3.73;2.60;;;16.80;99.90;;;;;;5055958;28;20404;-70
2022/09/13 03:18:40;;;;;;;3.97;2.17;;;16.80;99.90;;;;;;5056071;28;20385;-69
2022/09/13 03:21:14;;;;;;;2.47;2.23;;;16.90;99.90;;;;;;5058028;28;20408;-69
2022/09/13 03:23:51;;;;;;;2.20;2.00;;;16.90;99.90;;;;;;5055390;28;20421;-70
2022/09/13 03:26:35;;;;;;;2.83;2.63;;;17.00;99.90;;;;;;5055928;28;20384;-70
2022/09/13 03:29:43;;;;;;;3.07;2.57;;;17.00;99.90;;;;;;5055934;28;20390;-70
2022/09/13 03:32:23;;;;;;;2.53;2.27;;;17.10;99.90;;;;;;5044827;28;20417;-69
2022/09/13 03:35:30;;;;;;;3.30;2.60;;;17.10;99.90;;;;;;5055511;28;20846;-70
2022/09/13 03:38:11;;;;;;;2.23;2.07;;;17.10;99.90;;;;;;5054211;28;20449;-69
2022/09/13 03:40:42;;;;;;;3.60;2.83;;;17.20;99.90;;;;;;5055655;28;20739;-70
2022/09/13 03:43:13;;;;;;;2.50;2.30;;;17.10;99.90;;;;;;5055479;28;20421;-70
2022/09/13 03:45:49;;;;;;;2.70;2.50;;;17.10;99.90;;;;;;5055300;28;20887;-70
2022/09/13 03:48:16;;;;;;;2.50;2.30;;;17.10;99.90;;;;;;5055552;28;20428;-69
2022/09/13 03:50:45;;;;;;;2.83;2.63;;;17.10;99.90;;;;;;5055250;28;20437;-70
2022/09/13 03:53:15;;;;;;;2.97;2.77;;;16.90;99.90;;;;;;5054535;28;20502;-70
2022/09/13 03:55:42;;;;;;;3.60;2.80;;;16.70;99.90;;;;;;5055101;28;20405;-70
2022/09/13 03:58:12;;;;;;;2.60;2.40;;;16.70;99.90;;;;;;5055130;28;20486;-70
2022/09/13 04:00:39;;;;;;;3.10;2.83;;;16.70;99.90;;;;;;5055270;28;20408;-70
2022/09/13 04:03:05;;;;;;;3.53;2.80;;;16.70;99.90;;;;;;5054957;28;20495;-69
2022/09/13 04:05:30;;;;;;;3.00;2.37;;;16.70;99.90;;;;;;5054894;28;20408;-70
2022/09/13 04:07:56;;;;;;;2.50;2.30;;;16.80;99.90;;;;;;5054732;28;20186;-70
2022/09/13 04:10:23;;;;;;;5.40;2.33;;;16.80;99.90;;;;;;5054034;28;20624;-70
2022/09/13 04:12:48;;;;;;;2.90;2.60;;;16.70;99.90;;;;;;5054851;28;20566;-70
2022/09/13 04:15:15;;;;;;;4.70;2.80;;;16.50;99.90;;;;;;5054569;28;20408;-70
2022/09/13 04:17:40;;;;;;;2.53;2.17;;;16.40;99.90;;;;;;5054521;28;20163;-70
2022/09/13 04:20:06;;;;;;;2.60;2.20;;;16.40;99.90;;;;;;5054479;28;20406;-69
2022/09/13 04:22:32;;;;;;;2.57;2.13;;;16.50;99.90;;;;;;5054574;28;20173;-70
2022/09/13 04:24:58;;;;;;;8.30;2.77;;;16.50;99.90;;;;;;5054420;28;20547;-70
2022/09/13 04:27:24;;;;;;;3.00;2.80;;;16.50;99.90;;;;;;5054320;28;20168;-69
2022/09/13 04:29:50;;;;;;;2.70;2.50;;;16.50;99.90;;;;;;5054676;28;20759;-69
2022/09/13 04:32:15;;;;;;;4.20;3.17;;;16.50;99.90;;;;;;5054358;28;20176;-69
2022/09/13 04:34:41;;;;;;;3.70;2.97;;;16.50;99.90;;;;;;5054202;28;20665;-69
2022/09/13 04:37:08;;;;;;;3.00;2.70;;;16.40;99.90;;;;;;5054067;28;20265;-69
2022/09/13 04:39:33;;;;;;;2.50;2.30;;;16.40;99.90;;;;;;5053823;28;20225;-69
2022/09/13 04:41:59;;;;;;;3.57;2.77;;;16.50;99.90;;;;;;5055052;28;20397;-69
2022/09/13 04:44:24;;;;;;;3.93;2.80;;;16.60;99.90;;;;;;5054267;28;20209;-69
2022/09/13 04:46:50;;;;;;;2.47;2.27;;;16.70;99.90;;;;;;5036188;28;20169;-69
2022/09/13 04:49:17;;;;;;;3.57;2.90;;;16.80;99.90;;;;;;5053928;28;20175;-68
2022/09/13 04:51:42;;;;;;;2.37;2.10;;;16.80;99.90;;;;;;5054068;28;20176;-69
2022/09/13 04:54:09;;;;;;;4.20;2.53;;;16.70;99.90;;;;;;5052458;28;21924;-70
2022/09/13 04:56:35;;;;;;;3.33;3.03;;;16.50;99.90;;;;;;5052866;28;20287;-70
2022/09/13 04:59:00;;;;;;;3.63;2.30;;;16.50;99.90;;;;;;5052921;28;20904;-69
2022/09/13 05:01:26;;;;;;;2.83;2.20;;;16.60;99.90;;;;;;5053882;28;20699;-70
2022/09/13 05:03:52;;;;;;;2.77;2.57;;;16.70;99.90;;;;;;5053665;28;20679;-70
2022/09/13 05:06:19;;;;;;;2.90;2.53;;;16.80;99.90;;;;;;5052967;28;20172;-70
2022/09/13 05:08:51;;;;;;;5.10;2.70;;;16.90;99.90;;;;;;5053986;28;20412;-70
2022/09/13 05:11:17;;;;;;;3.90;2.60;;;17.00;99.90;;;;;;5053670;28;20396;-69
2022/09/13 05:13:42;;;;;;;3.30;2.57;;;17.00;99.90;;;;;;5053416;28;20496;-70
2022/09/13 05:16:08;;;;;;;3.03;2.70;;;17.00;99.90;;;;;;5047071;28;20174;-70
2022/09/13 05:18:35;;;;;;;2.90;2.60;;;16.90;99.90;;;;;;5046248;28;20174;-69
2022/09/13 05:21:03;;;;;;;4.60;2.80;;;16.80;99.90;;;;;;5053296;28;20162;-69
2022/09/13 05:23:30;;;;;;;4.13;2.73;;;16.80;99.90;;;;;;5052638;28;20909;-70
2022/09/13 05:26:01;;;;;;;2.93;2.40;;;16.70;99.90;;;;;;5052491;28;20423;-69
2022/09/13 05:28:32;;;;;;;3.43;3.13;;;16.80;99.90;;;;;;5053419;28;20404;-69
2022/09/13 05:31:13;;;;;;;3.27;2.97;;;16.80;99.90;;;;;;5044782;28;20426;-70
2022/09/13 05:33:38;;;;;;;2.60;2.40;;;16.90;99.90;;;;;;5044039;28;20479;-70
2022/09/13 05:36:05;;;;;;;2.83;2.60;;;16.90;99.90;;;;;;5043897;28;20915;-69
2022/09/13 05:38:31;;;;;;;3.67;2.47;;;16.90;99.90;;;;;;5042929;28;20185;-69
2022/09/13 05:40:59;;;;;;;2.50;2.30;;;16.80;99.90;;;;;;5044092;28;20403;-70
2022/09/13 05:43:28;;;;;;;4.40;2.83;;;16.90;99.90;;;;;;5050391;28;21037;-70
2022/09/13 05:46:08;;;;;;;4.60;2.43;;;17.00;99.90;;;;;;5053297;28;20411;-70
2022/09/13 05:48:34;;;;;;;3.80;3.17;;;17.00;99.90;;;;;;5053505;28;20389;-69
2022/09/13 05:51:20;;;;;;;3.93;2.83;;;17.00;99.90;;;;;;5053283;28;20416;-71
2022/09/13 05:53:48;;;;;;;2.97;2.50;;;17.00;99.90;;;;;;5052518;28;20192;-69
2022/09/13 05:56:19;;;;;;;3.47;2.90;;;17.00;99.90;;;;;;5053235;28;20487;-71
2022/09/13 05:58:49;;;;;;;2.83;2.57;;;17.00;99.90;;;;;;5053666;28;20869;-70
2022/09/13 06:01:18;;;;;;;4.53;2.90;;;17.00;99.90;;;;;;5053463;28;20561;-70
2022/09/13 06:03:49;;;;;;;2.93;2.50;;;17.00;99.90;;;;;;5054860;28;20530;-70
2022/09/13 06:06:16;;;;;;;4.67;2.67;;;17.20;99.90;;;;;;5054745;28;20428;-70
2022/09/13 06:08:42;;;;;;;3.30;2.73;;;17.20;99.90;;;;;;5054870;28;20462;-70
2022/09/13 06:11:10;;;;;;;2.90;2.57;;;17.30;99.90;;;;;;5055363;28;20907;-71
2022/09/13 06:13:36;;;;;;;4.53;2.50;;;17.40;99.90;;;;;;5036657;28;20217;-70
2022/09/13 06:16:05;;;;;;;3.43;2.10;;;17.60;99.90;;;;;;5053029;28;20409;-70
2022/09/13 06:18:31;;;;;;;7.80;3.03;;;17.70;99.90;;;;;;5052671;28;20405;-71
2022/09/13 06:20:59;;;;;;;3.40;2.53;;;17.80;99.90;;;;;;5035615;28;20445;-69
2022/09/13 06:23:25;;;;;;;3.00;2.60;;;17.90;99.90;;;;;;5052238;28;20602;-69
2022/09/13 06:26:09;;;;;;;2.90;2.37;;;17.90;99.90;;;;;;5052847;28;20404;-70
2022/09/13 06:28:36;;;;;;;3.03;2.77;;;18.00;99.90;;;;;;5053004;28;20436;-70
2022/09/13 06:31:05;;;;;;;3.93;3.63;;;18.00;99.90;;;;;;5052500;28;20405;-69
2022/09/13 06:33:36;;;;;;;3.63;3.33;;;18.00;99.90;;;;;;5054009;28;20449;-69
2022/09/13 06:36:04;;;;;;;4.70;2.50;;;18.00;99.90;;;;;;5057058;28;20871;-70
2022/09/13 06:38:29;;;;;;;3.70;3.23;;;18.00;99.90;;;;;;5054889;28;20420;-70
2022/09/13 06:41:06;;;;;;;3.83;2.97;;;17.80;99.90;;;;;;5056329;28;20401;-70
2022/09/13 06:43:33;;;;;;;4.63;2.63;;;17.80;99.90;;;;;;5038993;28;20215;-69
2022/09/13 06:46:05;;;;;;;2.77;2.40;;;17.80;99.90;;;;;;5056854;28;20562;-70
2022/09/13 06:48:32;;;;;;;2.70;2.50;;;17.80;99.90;;;;;;5056795;28;20465;-68
2022/09/13 06:51:02;;;;;;;2.93;2.60;;;17.90;99.90;;;;;;5056810;28;20771;-69
2022/09/13 06:53:29;;;;;;;2.97;2.57;;;18.00;99.90;;;;;;5055820;28;20866;-71
2022/09/13 06:56:10;;;;;;;3.30;3.00;;;18.10;99.90;;;;;;5056726;28;20782;-70
2022/09/13 06:58:37;;;;;;;2.63;2.10;;;18.30;99.90;;;;;;5056103;28;20410;-69
2022/09/13 07:01:25;;;;;;;5.20;2.30;;;18.40;99.90;;;;;;5056283;28;20397;-69
2022/09/13 07:03:53;;;;;;;3.20;2.83;;;18.50;99.90;;;;;;5039871;28;20491;-69
2022/09/13 07:06:22;;;;;;;4.00;2.67;;;18.60;99.90;;;;;;5056236;28;20416;-70
2022/09/13 07:08:49;;;;;;;3.03;2.83;;;18.70;99.90;;;;;;5055850;28;20417;-70
2022/09/13 07:11:17;;;;;;;5.40;3.03;;;18.80;99.90;;;;;;5056323;28;20413;-70
2022/09/13 07:13:57;;;;;;;4.10;3.03;;;19.00;99.90;;;;;;5055780;28;20449;-69
2022/09/13 07:16:29;;;;;;;4.07;2.93;;;19.10;99.90;;;;;;5056202;28;20944;-70
2022/09/13 07:18:57;;;;;;;4.23;3.60;;;19.20;99.90;;;;;;5055819;28;20385;-70
2022/09/13 07:21:24;;;;;;;3.80;2.77;;;19.40;99.90;;;;;;5055630;28;20397;-68
2022/09/13 07:23:50;;;;;;;3.37;3.07;;;19.50;99.90;;;;;;5055440;28;20525;-69
2022/09/13 07:26:16;;;;;;;3.97;3.13;;;19.60;99.90;;;;;;5058167;28;20426;-70
2022/09/13 07:28:47;;;;;;;2.93;2.33;;;19.30;99.90;;;;;;5055619;28;20775;-70
2022/09/13 07:31:39;;;;;;;3.77;2.93;;;19.40;99.90;;;;;;5055984;28;20253;-70
2022/09/13 07:34:07;;;;;;;4.30;2.93;;;19.70;99.90;;;;;;5052041;28;20468;-69
2022/09/13 07:36:34;;;;;;;5.40;3.80;;;19.70;99.90;;;;;;5055584;28;20401;-69
2022/09/13 07:39:01;;;;;;;5.70;3.03;;;19.70;99.90;;;;;;5054310;28;20503;-69
2022/09/13 07:41:28;;;;;;;3.10;2.50;;;19.70;99.90;;;;;;5037465;28;20816;-69
2022/09/13 07:43:55;;;;;;;4.67;3.33;;;19.70;99.90;;;;;;5055404;28;20486;-69
2022/09/13 07:46:23;;;;;;;2.60;2.40;;;19.60;99.90;;;;;;5055200;28;20405;-69
2022/09/13 07:48:52;;;;;;;4.20;3.10;;;19.50;99.90;;;;;;5054139;28;20943;-69
2022/09/13 07:51:21;;;;;;;10.33;3.80;;;19.50;99.90;;;;;;5055121;28;20487;-69
2022/09/13 07:53:49;;;;;;;3.20;2.67;;;20.00;99.90;;;;;;5054423;28;21017;-70
2022/09/13 07:56:17;;;;;;;4.97;3.00;;;20.30;99.90;;;;;;5054033;28;20516;-69
2022/09/13 07:58:44;;;;;;;4.00;3.47;;;20.60;99.90;;;;;;5055469;28;20437;-69
2022/09/13 08:01:32;;;;;;;6.03;4.33;;;20.30;99.90;;;;;;5055287;28;20405;-69
2022/09/13 08:04:03;;;;;;;7.10;4.40;;;20.20;99.90;;;;;;5089399;22;20502;-71
2022/09/13 08:06:31;;;;;;;4.37;3.37;;;20.30;99.90;;;;;;5076033;28;20755;-70
2022/09/13 08:08:57;;;;;;;4.00;3.60;;;20.30;99.90;;;;;;5074123;28;20454;-71
2022/09/13 08:11:35;;;;;;;4.60;3.60;;;20.80;99.90;;;;;;5075535;28;20883;-71
2022/09/13 08:14:01;;;;;;;4.13;3.00;;;21.10;99.90;;;;;;5075164;28;20448;-71
2022/09/13 08:16:28;;;;;;;3.90;3.33;;;21.40;99.90;;;;;;5075659;28;20791;-70
2022/09/13 08:18:56;;;;;;;4.17;3.30;;;21.50;99.90;;;;;;5075352;28;20491;-70
2022/09/13 08:21:23;;;;;;;8.43;3.40;;;21.80;99.90;;;;;;5075175;28;20828;-72
2022/09/13 08:23:49;;;;;;;3.90;3.50;;;21.40;99.90;;;;;;5074623;28;20440;-70
2022/09/13 08:26:16;;;;;;;6.80;3.90;;;21.30;99.90;;;;;;5074859;28;20416;-70
2022/09/13 08:28:41;;;;;;;7.23;3.50;;;21.30;99.90;;;;;;5075748;28;20173;-71
2022/09/13 08:31:14;;;;;;;3.70;3.23;;;21.40;99.90;;;;;;5075168;28;20393;-71
2022/09/13 08:33:43;;;;;;;3.43;2.93;;;21.70;99.90;;;;;;5074963;28;20447;-71
2022/09/13 08:36:08;;;;;;;4.50;4.03;;;22.10;99.90;;;;;;5075337;28;20409;-70
2022/09/13 08:38:34;;;;;;;5.67;3.40;;;22.30;99.90;;;;;;5074048;28;20431;-71
2022/09/13 08:41:19;;;;;;;3.40;3.07;;;22.30;99.90;;;;;;5074544;28;20177;-71
2022/09/13 08:44:15;;;;;;;5.10;2.90;;;22.20;99.90;;;;;;5074751;28;20186;-71
2022/09/13 08:46:45;;;;;;;5.07;3.50;;;22.00;99.90;;;;;;5074844;28;20385;-71
2022/09/13 08:49:18;;;;;;;6.53;3.60;;;22.00;99.90;;;;;;5075112;28;20404;-71
2022/09/13 08:51:56;;;;;;;3.93;2.60;;;22.10;99.90;;;;;;5074821;28;20741;-71
2022/09/13 08:54:22;;;;;;;4.43;2.73;;;22.50;99.90;;;;;;5074071;28;20440;-71
2022/09/13 08:57:04;;;;;;;3.77;3.43;;;22.80;99.90;;;;;;5074471;28;20770;-71
2022/09/13 08:59:58;;;;;;;5.03;3.63;;;22.80;99.90;;;;;;5074809;28;20146;-71
2022/09/13 09:02:47;;;;;;;9.37;3.77;;;22.90;99.90;;;;;;5074586;28;20381;-71
2022/09/13 09:05:28;;;;;;;6.47;4.10;;;22.90;99.90;;;;;;5073232;28;20472;-71
2022/09/13 09:08:04;;;;;;;7.60;3.60;;;22.60;99.90;;;;;;5074659;28;20415;-71
2022/09/13 09:10:34;;;;;;;4.50;3.33;;;22.30;99.90;;;;;;5074479;28;20398;-71
2022/09/13 09:13:25;;;;;;;7.83;3.40;;;22.20;99.90;;;;;;5074141;28;20419;-70
2022/09/13 09:16:01;;;;;;;5.70;3.57;;;22.30;99.90;;;;;;5073187;28;20462;-71
2022/09/13 09:18:34;;;;;;;4.63;3.17;;;22.70;99.90;;;;;;5074723;28;20388;-70
2022/09/13 09:21:02;;;;;;;3.50;2.63;;;23.00;99.90;;;;;;5073834;28;20762;-71
2022/09/13 09:23:35;;;;;;;3.77;2.67;;;23.00;99.90;;;;;;5074002;28;20424;-71
2022/09/13 09:26:17;;;;;;;3.20;2.90;;;23.10;99.90;;;;;;5074192;28;20407;-71
2022/09/13 09:28:55;;;;;;;3.43;3.13;;;23.10;99.90;;;;;;5076559;28;20770;-71
2022/09/13 09:31:53;;;;;;;8.60;3.07;;;23.00;99.90;;;;;;5074526;28;20434;-69
2022/09/13 09:34:44;;;;;;;4.20;3.27;;;23.20;99.90;;;;;;5074151;28;20455;-69
2022/09/13 09:37:28;;;;;;;4.37;2.67;;;23.60;99.90;;;;;;5073161;28;20408;-69
2022/09/13 09:40:02;;;;;;;6.80;3.07;;;23.50;99.90;;;;;;5073184;28;20828;-70
2022/09/13 09:42:34;;;;;;;4.23;2.70;;;23.70;99.90;;;;;;5074715;28;20399;-71
2022/09/13 09:45:28;;;;;;;5.27;3.50;;;24.20;99.90;;;;;;5074489;28;20424;-70
2022/09/13 09:47:57;;;;;;;3.80;3.00;;;24.00;99.90;;;;;;5072628;28;20432;-70
2022/09/13 09:50:27;;;;;;;3.47;3.07;;;23.90;99.90;;;;;;5073645;28;20929;-70
2022/09/13 09:53:13;;;;;;;7.17;3.10;;;24.00;99.90;;;;;;5073329;28;20826;-70
2022/09/13 09:55:47;;;;;;;4.13;3.27;;;24.10;99.90;;;;;;5073546;28;20739;-70
2022/09/13 09:58:17;;;;;;;6.27;3.27;;;24.50;99.90;;;;;;5073576;28;20404;-71
2022/09/13 10:00:55;;;;;;;4.87;2.87;;;24.60;99.90;;;;;;5074093;28;20376;-70
2022/09/13 10:03:26;;;;;;;5.00;2.97;;;24.70;99.90;;;;;;5072634;28;20439;-70
2022/09/13 10:06:05;;;;;;;7.23;2.80;;;24.60;99.90;;;;;;5073446;28;20809;-71
2022/09/13 10:08:34;;;;;;;3.87;2.73;;;24.70;99.90;;;;;;5072534;28;20411;-70
2022/09/13 10:11:01;;;;;;;4.90;2.87;;;24.40;99.90;;;;;;5073027;28;20401;-70
2022/09/13 10:13:28;;;;;;;2.87;2.40;;;24.30;99.90;;;;;;5070916;28;20451;-70
2022/09/13 10:15:57;;;;;;;7.33;3.17;;;24.30;99.90;;;;;;5073309;28;20408;-71
2022/09/13 10:18:24;;;;;;;4.00;2.77;;;24.50;99.90;;;;;;5073678;28;20760;-71
2022/09/13 10:21:06;;;;;;;4.77;2.47;;;24.60;99.90;;;;;;5072976;28;20910;-71
2022/09/13 10:23:36;;;;;;;3.90;2.50;;;24.80;99.90;;;;;;5073174;28;20427;-70
2022/09/13 10:26:23;;;;;;;3.00;2.10;;;24.90;99.90;;;;;;5073243;28;20397;-70
2022/09/13 10:29:12;;;;;;;3.27;2.23;;;25.20;99.90;;;;;;5073685;28;20736;-71
2022/09/13 10:31:41;;;;;;;4.10;2.50;;;25.50;99.90;;;;;;5073056;28;20874;-70
2022/09/13 10:34:13;;;;;;;3.93;2.40;;;25.70;99.30;;;;;;5073000;28;20809;-70
2022/09/13 10:37:07;;;;;;;2.90;2.60;;;25.70;99.10;;;;;;5072962;28;20389;-71
2022/09/13 10:39:35;;;;;;;3.40;2.00;;;25.70;98.90;;;;;;5060830;28;20428;-70
2022/09/13 10:42:09;;;;;;;5.83;2.77;;;25.90;99.00;;;;;;5071790;28;20439;-70
2022/09/13 10:44:40;;;;;;;6.20;2.43;;;26.00;99.00;;;;;;5065123;28;20436;-71
2022/09/13 10:47:12;;;;;;;3.73;2.30;;;26.40;98.20;;;;;;5073209;28;20408;-72
2022/09/13 10:49:53;;;;;;;4.93;2.63;;;27.40;97.40;;;;;;5073269;28;20413;-71
2022/09/13 10:52:26;;;;;;;3.27;2.17;;;27.50;95.90;;;;;;5073239;28;20786;-71
2022/09/13 10:54:53;;;;;;;3.80;2.03;;;27.90;95.40;;;;;;5072283;28;20436;-71
2022/09/13 10:57:33;;;;;;;7.30;2.37;;;28.30;94.80;;;;;;5072715;28;20547;-71
2022/09/13 10:59:58;;;;;;;3.90;2.67;;;28.00;94.20;;;;;;5072913;28;20745;-71
2022/09/13 11:02:33;;;;;;;3.17;1.90;;;28.50;94.00;;;;;;5072750;28;20400;-70
2022/09/13 11:05:11;;;;;;;3.60;2.13;;;29.10;92.80;;;;;;5072718;28;20677;-71
2022/09/13 11:08:11;;;;;;;4.80;2.50;;;29.80;90.90;;;;;;5073013;28;20396;-71
2022/09/13 11:11:05;;;;;;;5.80;1.90;;;30.90;88.80;;;;;;5072225;28;20440;-71
2022/09/13 11:14:10;;;;;;;3.30;2.00;;;32.30;82.90;;;;;;5072739;28;20523;-72
2022/09/13 11:17:12;;;;;;;2.17;1.20;;;32.60;76.20;;;;;;5035139;28;20428;-71
2022/09/13 11:20:04;;;;;;;3.97;1.47;;;31.60;74.30;;;;;;5070882;28;20825;-71
2022/09/13 11:22:48;;;;;;;2.27;2.00;;;31.30;74.80;;;;;;5076747;28;20384;-71
2022/09/13 11:25:42;;;;;;;5.07;1.77;;;30.50;77.80;;;;;;5076117;28;20407;-71
2022/09/13 11:28:43;;;;;;;2.63;2.00;;;29.70;78.40;;;;;;5076795;28;20381;-71
2022/09/13 11:31:27;;;;;;;4.23;2.20;;;29.30;78.20;;;;;;5076678;28;20408;-71
2022/09/13 11:34:20;;;;;;;3.07;1.60;;;30.10;76.50;;;;;;5078508;28;20439;-71
2022/09/13 11:37:07;;;;;;;6.07;2.07;;;30.70;74.20;;;;;;5076438;28;20385;-71
2022/09/13 11:39:46;;;;;;;3.03;1.40;;;31.00;73.10;;;;;;5074764;28;20753;-71
2022/09/13 11:42:32;;;;;;;5.60;2.30;;;31.00;73.50;;;;;;5076222;28;20388;-71
2022/09/13 11:45:18;;;;;;;8.97;2.67;;;30.90;72.30;;;;;;5075819;28;20420;-71
2022/09/13 11:48:02;;;;;;;6.03;2.00;;;30.40;72.80;;;;;;5076584;28;20754;-71
2022/09/13 11:50:53;;;;;;;4.97;1.90;;;29.90;72.70;;;;;;5076077;28;20404;-71
2022/09/13 11:53:49;;;;;;;3.20;2.20;;;30.10;72.60;;;;;;5075751;28;20432;-71
2022/09/13 11:56:25;;;;;;;4.07;1.60;;;30.90;69.90;;;;;;5075406;28;20385;-71
2022/09/13 11:58:56;;;;;;;3.80;1.87;;;31.40;67.80;;;;;;5075967;28;20509;-70
2022/09/13 12:01:31;;;;;;;5.27;2.17;;;31.20;69.00;;;;;;5075974;28;20399;-70
2022/09/13 12:04:14;;;;;;;6.40;1.93;;;31.90;67.20;;;;;;5075630;28;20526;-70
2022/09/13 12:06:45;;;;;;;3.03;1.63;;;32.20;64.10;;;;;;5076219;28;20507;-70
2022/09/13 12:09:36;;;;;;;1.30;1.20;;;32.70;62.00;;;;;;5075393;28;20465;-71
2022/09/13 12:12:09;;;;;;;1.27;1.17;;;32.90;61.10;;;;;;5071451;28;20408;-71
2022/09/13 12:15:06;;;;;;;3.03;1.30;;;33.70;59.00;;;;;;5076010;28;20531;-70
2022/09/13 12:17:40;;;;;;;2.13;1.57;;;34.00;58.80;;;;;;5067512;28;20546;-71
2022/09/13 12:20:16;;;;;;;1.73;1.33;;;33.10;58.50;;;;;;5075401;28;20495;-71
2022/09/13 12:22:42;;;;;;;3.50;1.73;;;32.90;58.60;;;;;;5075702;28;20400;-71
2022/09/13 12:25:20;;;;;;;2.73;1.60;;;33.00;58.90;;;;;;5074992;28;20404;-71
2022/09/13 12:28:04;;;;;;;3.40;0.90;;;32.90;56.90;;;;;;5075588;28;20381;-71
2022/09/13 12:30:44;;;;;;;1.93;1.20;;;34.50;54.60;;;;;;5074662;28;20722;-70
2022/09/13 12:33:14;;;;;;;1.30;1.10;;;34.50;53.60;;;;;;5073677;28;20432;-71
2022/09/13 12:36:03;;;;;;;1.30;1.10;;;33.50;55.30;;;;;;5075081;28;20462;-71
2022/09/13 12:39:05;;;;;;;1.53;1.00;;;33.10;56.40;;;;;;5075170;28;20389;-71
2022/09/13 12:41:58;;;;;;;2.30;1.23;;;32.30;57.70;;;;;;5054771;28;20443;-71
2022/09/13 12:44:53;;;;;;;2.73;1.50;;;32.70;56.70;;;;;;5054906;28;20417;-71
2022/09/13 12:47:40;;;;;;;2.53;1.33;;;33.40;55.20;;;;;;5055250;28;20473;-70
2022/09/13 12:50:38;;;;;;;2.87;1.37;;;33.60;54.40;;;;;;5055269;28;20402;-71
2022/09/13 12:53:22;;;;;;;3.00;1.70;;;34.50;53.60;;;;;;5054964;28;20429;-71
2022/09/13 12:56:16;;;;;;;1.87;1.17;;;34.90;52.70;;;;;;5053183;28;20425;-71
2022/09/13 12:58:51;;;;;;;6.47;2.00;;;34.60;51.80;;;;;;5058683;28;20432;-70
2022/09/13 13:01:26;;;;;;;1.43;1.10;;;35.20;51.20;;;;;;5075074;28;20412;-71
2022/09/13 13:04:15;;;;;;;1.80;1.20;;;35.80;48.40;;;;;;5074614;28;20457;-71
2022/09/13 13:06:57;;;;;;;1.20;0.90;;;34.80;48.50;;;;;;5075147;28;20483;-71
2022/09/13 13:09:32;;;;;;;1.50;1.00;;;34.90;48.30;;;;;;5074471;28;20400;-71
2022/09/13 13:11:58;;;;;;;1.20;0.90;;;35.50;48.10;;;;;;5074834;28;20743;-71
2022/09/13 13:14:39;;;;;;;2.40;1.27;;;35.00;48.70;;;;;;5074914;28;20451;-71
2022/09/13 13:17:37;;;;;;;1.33;1.03;;;35.60;47.30;;;;;;5075130;28;20416;-71
2022/09/13 13:20:36;;;;;;;2.07;1.30;;;35.60;46.70;;;;;;5075590;28;20400;-72
2022/09/13 13:23:14;;;;;;;1.40;1.07;;;35.50;46.30;;;;;;5075242;28;20431;-71
2022/09/13 13:25:53;;;;;;;1.70;1.10;;;35.20;45.80;;;;;;5073711;28;20389;-71
2022/09/13 13:28:49;;;;;;;3.70;1.17;;;37.40;43.50;;;;;;5074067;28;20745;-71